Time;durP1;ratioP1;P1;durP2;ratioP2;P2;SDS_P1;SDS_P2;PMS_P1;PMS_P2;Temp;Humidity;BMP_temperature;BMP_pressure;BME280_temperature;BME280_humidity;BME280_pressure;Samples;Min_cycle;Max_cycle;Signal;HPM_P1;HPM_P2
2022/10/23 00:03:34;;;;;;;1.70;0.50;;;;;;;20.15;51.09;101243.69;16123485;19;129760;-41
2022/10/23 00:08:55;;;;;;;1.23;0.50;;;;;;;20.12;50.75;101239.47;16125053;19;129115;-43
2022/10/23 00:14:20;;;;;;;1.02;0.38;;;;;;;20.13;50.64;101232.00;16126193;19;129787;-42
2022/10/23 00:19:42;;;;;;;2.03;0.37;;;;;;;20.11;50.66;101245.28;16127190;19;129716;-41
2022/10/23 00:25:06;;;;;;;2.60;0.43;;;;;;;20.11;50.75;101234.16;16126562;19;129884;-41
2022/10/23 00:30:27;;;;;;;2.15;0.50;;;;;;;20.08;50.94;101238.28;16121898;19;128980;-41
2022/10/23 00:35:49;;;;;;;4.50;0.50;;;;;;;20.07;50.56;101239.38;16126895;19;129943;-41
2022/10/23 00:41:17;;;;;;;1.02;0.40;;;;;;;20.08;50.91;101241.06;16125766;19;128937;-42
2022/10/23 00:46:39;;;;;;;1.77;0.47;;;;;;;20.06;50.74;101226.59;16126548;19;129858;-41
2022/10/23 00:52:04;;;;;;;1.15;0.40;;;;;;;20.05;50.55;101224.06;16124673;19;130479;-41
2022/10/23 00:57:25;;;;;;;1.43;0.60;;;;;;;20.04;50.66;101225.16;16123213;19;130646;-41
2022/10/23 01:03:07;;;;;;;1.48;0.30;;;;;;;20.03;50.43;101204.03;16120626;19;129269;-41
2022/10/23 01:08:45;;;;;;;0.95;0.45;;;;;;;20.03;50.54;101204.03;16123157;19;129853;-41
2022/10/23 01:14:26;;;;;;;0.63;0.32;;;;;;;20.02;50.80;101185.69;16121322;19;129555;-41
2022/10/23 01:20:06;;;;;;;1.55;0.28;;;;;;;19.99;50.82;101187.84;16122573;19;130875;-44
2022/10/23 01:25:52;;;;;;;0.98;0.30;;;;;;;20.01;50.40;101186.75;16121702;19;130531;-42
2022/10/23 01:31:21;;;;;;;2.57;0.60;;;;;;;19.98;50.63;101188.91;16123164;19;128990;-41
2022/10/23 01:36:47;;;;;;;3.47;0.60;;;;;;;19.98;50.62;101185.31;16120885;19;129534;-43
2022/10/23 01:42:12;;;;;;;0.95;0.35;;;;;;;19.97;50.75;101175.28;16119977;19;129854;-41
2022/10/23 01:47:34;;;;;;;1.45;0.43;;;;;;;19.96;50.55;101176.38;16119727;19;129545;-41
2022/10/23 01:52:56;;;;;;;2.90;0.65;;;;;;;19.94;50.72;101171.06;16119590;19;131268;-42
2022/10/23 01:58:20;;;;;;;1.05;0.45;;;;;;;19.94;50.50;101161.91;16119668;19;129461;-42
2022/10/23 02:03:43;;;;;;;1.25;0.22;;;;;;;19.93;50.70;101149.09;16121150;19;129735;-41
2022/10/23 02:09:06;;;;;;;0.20;0.20;;;;;;;19.92;50.69;101148.28;16120612;19;129519;-41
2022/10/23 02:14:46;;;;;;;0.57;0.30;;;;;;;19.94;50.51;101142.47;16116017;19;129598;-41
2022/10/23 02:20:33;;;;;;;0.85;0.30;;;;;;;19.91;50.41;101132.69;16120129;19;129587;-41
2022/10/23 02:26:02;;;;;;;0.77;0.30;;;;;;;19.89;50.31;101118.22;16119394;19;130175;-41
2022/10/23 02:31:24;;;;;;;1.15;0.30;;;;;;;19.90;50.32;101106.03;16131438;19;129552;-41
2022/10/23 02:36:49;;;;;;;1.30;0.40;;;;;;;19.88;50.24;101102.66;16132298;19;129632;-41
2022/10/23 02:42:19;;;;;;;1.08;0.28;;;;;;;19.88;50.23;101086.00;16133630;19;129394;-41
2022/10/23 02:47:52;;;;;;;0.85;0.45;;;;;;;19.88;50.20;101079.63;16132782;19;129745;-41
2022/10/23 02:53:35;;;;;;;1.00;0.30;;;;;;;19.88;50.63;101069.34;16133112;19;130955;-42
2022/10/23 02:59:09;;;;;;;0.75;0.20;;;;;;;19.88;50.38;101062.97;16131579;19;131116;-41
2022/10/23 03:04:32;;;;;;;0.30;0.30;;;;;;;19.84;50.32;101063.44;16130759;19;130099;-43
2022/10/23 03:09:54;;;;;;;0.47;0.13;;;;;;;19.85;50.22;101058.72;16130395;19;129873;-43
2022/10/23 03:15:16;;;;;;;0.30;0.15;;;;;;;19.84;50.39;101045.94;16130739;19;130218;-41
2022/10/23 03:20:37;;;;;;;0.55;0.28;;;;;;;19.82;50.25;101043.44;16130403;19;129432;-42
2022/10/23 03:25:59;;;;;;;0.40;0.20;;;;;;;19.83;50.21;101034.00;16131328;19;129675;-41
2022/10/23 03:31:21;;;;;;;0.68;0.30;;;;;;;19.82;50.27;101031.47;16130250;19;133853;-42
2022/10/23 03:36:43;;;;;;;0.25;0.20;;;;;;;19.82;50.66;101037.00;16127344;19;130436;-43
2022/10/23 03:42:04;;;;;;;0.17;0.15;;;;;;;19.81;50.51;101021.47;16124644;19;130786;-40
2022/10/23 03:47:26;;;;;;;1.00;0.20;;;;;;;19.81;50.21;101013.16;16127631;19;130096;-40
2022/10/23 03:52:48;;;;;;;0.90;0.20;;;;;;;19.79;50.40;100998.69;16127956;19;130066;-43
2022/10/23 03:58:10;;;;;;;0.57;0.20;;;;;;;19.78;50.39;100992.25;16126164;19;129202;-41
2022/10/23 04:03:32;;;;;;;0.57;0.20;;;;;;;19.79;50.45;100987.56;16128696;19;129555;-42
2022/10/23 04:08:53;;;;;;;1.05;0.15;;;;;;;19.78;50.52;100997.81;16127463;19;129337;-42
2022/10/23 04:14:15;;;;;;;0.32;0.20;;;;;;;19.78;50.31;100992.25;16126732;19;129485;-41
2022/10/23 04:19:37;;;;;;;0.40;0.20;;;;;;;19.77;50.31;100989.75;16127035;19;131137;-41
2022/10/23 04:24:58;;;;;;;0.52;0.30;;;;;;;19.77;50.56;100978.66;16126027;19;129226;-41
2022/10/23 04:30:20;;;;;;;0.40;0.20;;;;;;;19.75;50.13;100981.69;16122991;19;129288;-41
2022/10/23 04:35:42;;;;;;;0.30;0.20;;;;;;;19.76;50.30;100982.50;16126802;19;129718;-41
2022/10/23 04:41:03;;;;;;;1.17;0.20;;;;;;;19.75;50.34;100975.28;16122477;19;129427;-42
2022/10/23 04:46:25;;;;;;;0.15;0.15;;;;;;;19.75;50.16;100969.72;16123293;19;129771;-42
2022/10/23 04:51:47;;;;;;;2.55;0.20;;;;;;;19.74;50.41;100970.81;16124028;19;129580;-40
2022/10/23 04:57:08;;;;;;;0.65;0.10;;;;;;;19.73;50.54;100972.78;16122373;19;130260;-43
2022/10/23 05:02:30;;;;;;;0.45;0.28;;;;;;;19.73;50.20;100969.13;16123391;19;129256;-41
2022/10/23 05:07:52;;;;;;;0.20;0.20;;;;;;;19.72;50.07;100961.91;16123224;19;129716;-43
2022/10/23 05:13:15;;;;;;;0.10;0.10;;;;;;;19.73;50.06;100958.03;16122095;19;130412;-41
2022/10/23 05:18:45;;;;;;;1.45;0.20;;;;;;;19.73;50.18;100942.25;16123624;19;130818;-41
2022/10/23 05:24:07;;;;;;;0.10;0.10;;;;;;;19.69;50.43;100932.72;16122794;19;129455;-41
2022/10/23 05:29:29;;;;;;;0.70;0.25;;;;;;;19.67;50.07;100941.31;16122256;19;129596;-42
2022/10/23 05:34:50;;;;;;;0.40;0.20;;;;;;;19.68;50.47;100931.91;16123891;19;129336;-41
2022/10/23 05:40:13;;;;;;;1.38;0.30;;;;;;;19.67;50.02;100919.13;16120848;19;129741;-41
2022/10/23 05:45:34;;;;;;;0.20;0.20;;;;;;;19.66;50.27;100928.53;16120188;19;130377;-42
2022/10/23 05:51:02;;;;;;;0.22;0.10;;;;;;;19.68;50.64;100926.34;16120432;19;135920;-43
2022/10/23 05:56:24;;;;;;;0.15;0.10;;;;;;;19.82;50.50;100909.31;16120261;19;129969;-41
2022/10/23 06:01:45;;;;;;;0.20;0.13;;;;;;;19.97;49.97;100911.50;16121379;19;129635;-40
2022/10/23 06:07:07;;;;;;;0.45;0.17;;;;;;;20.06;49.60;100896.09;16133522;19;130630;-41
2022/10/23 06:12:30;;;;;;;0.30;0.20;;;;;;;20.12;49.87;100891.44;16133205;19;129638;-40
2022/10/23 06:17:52;;;;;;;0.30;0.20;;;;;;;20.14;49.79;100883.69;16135560;19;129404;-41
2022/10/23 06:23:14;;;;;;;2.35;0.20;;;;;;;20.14;49.61;100867.03;16132957;19;131358;-41
2022/10/23 06:28:35;;;;;;;0.30;0.10;;;;;;;20.13;49.34;100857.03;16129935;19;129983;-42
2022/10/23 06:33:58;;;;;;;0.32;0.10;;;;;;;20.13;49.68;100865.34;16133368;19;129919;-41
2022/10/23 06:39:21;;;;;;;1.08;0.30;;;;;;;20.11;49.53;100862.84;16134941;19;129823;-40
2022/10/23 06:44:42;;;;;;;1.73;0.22;;;;;;;20.10;49.83;100849.19;16131536;19;129825;-41
2022/10/23 06:50:04;;;;;;;1.25;0.32;;;;;;;20.08;49.47;100848.63;16132663;19;130484;-42
2022/10/23 06:55:26;;;;;;;1.33;0.30;;;;;;;20.06;49.63;100848.06;16133018;19;130329;-41
2022/10/23 07:00:47;;;;;;;3.38;0.40;;;;;;;20.06;49.63;100851.66;16132400;19;128981;-41
2022/10/23 07:06:10;;;;;;;2.60;0.40;;;;;;;20.05;49.81;100844.44;16133295;19;129419;-40
2022/10/23 07:11:32;;;;;;;1.73;0.30;;;;;;;20.03;49.84;100838.28;16133993;19;129277;-40
2022/10/23 07:16:53;;;;;;;1.02;0.30;;;;;;;20.03;49.68;100837.47;16121746;19;129719;-40
2022/10/23 07:22:15;;;;;;;1.92;0.20;;;;;;;19.99;49.50;100849.06;16115220;19;129962;-39
2022/10/23 07:27:37;;;;;;;1.85;0.73;;;;;;;19.97;49.57;100853.19;16119335;19;129661;-39
2022/10/23 07:32:59;;;;;;;0.68;0.30;;;;;;;19.96;49.71;100849.56;16126272;19;129626;-39
2022/10/23 07:38:20;;;;;;;0.80;0.35;;;;;;;19.94;50.03;100846.19;16132145;19;129055;-40
2022/10/23 07:43:42;;;;;;;1.90;0.40;;;;;;;19.92;50.01;100840.06;16130259;19;129590;-39
2022/10/23 07:49:04;;;;;;;1.00;0.30;;;;;;;19.90;49.99;100845.03;16130147;19;129487;-41
2022/10/23 07:54:26;;;;;;;1.25;0.38;;;;;;;19.87;49.71;100834.44;16129474;19;129603;-39
2022/10/23 07:59:47;;;;;;;1.75;0.35;;;;;;;19.86;49.77;100832.75;16128152;19;129793;-40
2022/10/23 08:05:09;;;;;;;2.47;0.70;;;;;;;19.85;49.68;100836.63;16128459;19;129607;-42
2022/10/23 08:10:31;;;;;;;2.78;0.88;;;;;;;19.85;49.52;100819.97;16124195;19;129990;-41
2022/10/23 08:15:53;;;;;;;1.90;0.40;;;;;;;19.84;49.67;100818.28;16125688;19;129358;-40
2022/10/23 08:21:16;;;;;;;5.28;0.43;;;;;;;19.83;49.76;100811.06;16124017;19;131037;-40
2022/10/23 08:26:37;;;;;;;1.20;0.55;;;;;;;19.82;49.58;100804.69;16124204;19;129754;-39
2022/10/23 08:31:59;;;;;;;1.42;0.50;;;;;;;19.81;49.59;100799.41;16127199;19;129592;-40
2022/10/23 08:37:21;;;;;;;2.72;0.50;;;;;;;19.81;49.79;100786.34;16125980;19;129479;-40
2022/10/23 08:42:50;;;;;;;0.65;0.30;;;;;;;19.81;50.04;100779.97;16127093;19;129837;-42
2022/10/23 08:48:30;;;;;;;4.88;0.65;;;;;;;19.80;49.91;100773.56;16127038;19;129640;-41
2022/10/23 08:53:59;;;;;;;2.75;0.40;;;;;;;19.79;49.80;100754.41;16125752;19;130059;-40
2022/10/23 08:59:38;;;;;;;1.77;0.40;;;;;;;19.81;49.94;100743.88;16125519;19;133826;-40
2022/10/23 09:05:00;;;;;;;2.75;0.52;;;;;;;19.79;50.43;100741.34;16128500;19;129609;-41
2022/10/23 09:10:56;;;;;;;1.80;0.50;;;;;;;19.81;49.96;100732.78;16123272;19;129181;-40
2022/10/23 09:17:00;;;;;;;5.07;1.10;;;;;;;19.80;50.18;100733.88;16122450;19;129665;-41
2022/10/23 09:22:22;;;;;;;4.80;0.60;;;;;;;19.79;49.97;100723.88;16118724;19;131145;-40
2022/10/23 09:27:49;;;;;;;1.60;0.57;;;;;;;19.78;50.33;100714.69;16115459;19;129865;-39
2022/10/23 09:33:22;;;;;;;7.18;1.20;;;;;;;19.81;50.17;100685.59;16119801;19;129920;-41
2022/10/23 09:38:52;;;;;;;4.07;0.77;;;;;;;19.94;50.22;100665.72;16122323;19;129465;-41
2022/10/23 09:44:21;;;;;;;7.35;0.85;;;;;;;20.21;50.01;100689.06;16121041;19;129406;-40
2022/10/23 09:49:48;;;;;;;11.68;0.93;;;;;;;20.58;49.56;100666.88;16122074;19;129212;-39
2022/10/23 09:55:23;;;;;;;10.18;0.70;;;;;;;20.94;48.58;100660.78;16120324;19;129534;-41
2022/10/23 10:00:46;;;;;;;9.23;0.88;;;;;;;21.18;48.64;100680.66;16121185;19;129597;-40
2022/10/23 10:06:34;;;;;;;3.30;0.93;;;;;;;21.32;48.19;100661.53;16122393;19;130407;-40
2022/10/23 10:12:16;;;;;;;3.38;0.68;;;;;;;21.35;47.89;100660.97;16119342;19;129440;-40
2022/10/23 10:18:18;;;;;;;7.20;0.82;;;;;;;21.30;47.95;100671.25;16121996;19;129430;-40
2022/10/23 10:24:01;;;;;;;3.90;0.55;;;;;;;21.22;47.94;100659.53;16118024;19;129356;-42
2022/10/23 10:29:55;;;;;;;6.53;0.52;;;;;;;21.18;47.94;100657.56;16117481;19;129633;-40
2022/10/23 10:35:36;;;;;;;3.65;0.60;;;;;;;21.11;48.08;100652.25;16119512;19;131354;-41
2022/10/23 10:41:16;;;;;;;6.30;0.70;;;;;;;21.04;48.67;100651.66;16110991;19;130838;-41
2022/10/23 10:46:50;;;;;;;4.07;0.60;;;;;;;20.98;48.91;100656.38;16115434;19;129585;-42
2022/10/23 10:52:17;;;;;;;4.53;0.68;;;;;;;20.94;49.46;100646.03;16130191;19;129431;-41
2022/10/23 10:57:45;;;;;;;3.15;0.90;;;;;;;20.94;49.35;100634.91;16129464;19;131031;-41
2022/10/23 11:03:22;;;;;;;6.38;1.00;;;;;;;20.92;49.73;100618.50;16131909;19;129719;-41
2022/10/23 11:08:44;;;;;;;3.42;0.60;;;;;;;20.87;50.04;100604.53;16130516;19;130836;-39
2022/10/23 11:14:27;;;;;;;5.35;1.10;;;;;;;20.86;50.19;100591.78;16129283;19;129769;-39
2022/10/23 11:20:17;;;;;;;2.60;0.73;;;;;;;20.85;50.08;100577.03;16128076;19;130424;-40
2022/10/23 11:26:38;;;;;;;4.60;1.10;;;;;;;20.83;50.21;100584.78;16129550;19;129643;-42
2022/10/23 11:32:10;;;;;;;2.78;0.70;;;;;;;20.82;50.10;100583.13;16117913;19;129633;-40
2022/10/23 11:37:32;;;;;;;2.92;0.98;;;;;;;20.78;50.13;100562.53;16118844;19;129588;-39
2022/10/23 11:42:54;;;;;;;2.55;0.90;;;;;;;20.78;50.66;100559.75;16119683;19;129320;-39
2022/10/23 11:48:15;;;;;;;3.22;0.75;;;;;;;20.75;50.40;100547.22;16119930;19;129886;-40
2022/10/23 11:53:39;;;;;;;2.58;0.80;;;;;;;20.76;50.54;100545.28;16122409;19;130213;-40
2022/10/23 11:59:27;;;;;;;5.00;0.82;;;;;;;20.77;50.54;100544.19;16115433;19;130233;-39
2022/10/23 12:04:52;;;;;;;3.38;0.82;;;;;;;20.76;50.51;100539.72;16119338;19;130060;-39
2022/10/23 12:10:26;;;;;;;8.00;1.00;;;;;;;20.75;50.52;100536.09;16125919;19;130325;-41
2022/10/23 12:15:53;;;;;;;1.50;0.60;;;;;;;20.76;50.40;100528.63;16124362;19;129365;-38
2022/10/23 12:21:26;;;;;;;2.47;0.70;;;;;;;20.77;50.77;100523.88;16125950;19;129945;-41
2022/10/23 12:27:07;;;;;;;4.20;0.80;;;;;;;20.78;50.50;100517.22;16126201;19;129790;-39
2022/10/23 12:32:51;;;;;;;1.48;0.50;;;;;;;20.77;50.47;100508.03;16122501;19;129246;-42
2022/10/23 12:38:17;;;;;;;1.63;0.80;;;;;;;20.75;50.62;100493.53;16127271;19;129294;-38
2022/10/23 12:43:41;;;;;;;2.42;0.60;;;;;;;20.75;50.51;100488.84;16122665;19;130579;-40
2022/10/23 12:49:13;;;;;;;1.33;0.50;;;;;;;20.77;50.29;100463.56;16123304;19;130135;-40
2022/10/23 12:54:38;;;;;;;1.80;0.52;;;;;;;20.77;50.50;100452.44;16122930;19;130440;-39
2022/10/23 13:00:09;;;;;;;3.15;0.77;;;;;;;20.74;50.86;100431.53;16125580;19;129357;-39
2022/10/23 13:05:31;;;;;;;1.05;0.60;;;;;;;20.71;50.93;100436.81;16121598;19;130043;-40
2022/10/23 13:10:53;;;;;;;5.78;0.68;;;;;;;20.69;50.77;100423.19;16122472;19;129526;-43
2022/10/23 13:16:18;;;;;;;3.10;0.70;;;;;;;20.67;50.70;100414.28;16123320;19;129425;-39
2022/10/23 13:21:45;;;;;;;2.13;0.70;;;;;;;20.68;51.00;100426.22;16122319;19;129559;-40
2022/10/23 13:27:36;;;;;;;3.15;0.85;;;;;;;20.66;51.30;100431.25;16122816;19;130777;-39
2022/10/23 13:32:59;;;;;;;4.50;0.90;;;;;;;20.63;51.44;100429.84;16120692;19;130184;-40
2022/10/23 13:38:33;;;;;;;4.72;0.93;;;;;;;20.62;51.25;100424.56;16126428;19;129566;-39
2022/10/23 13:43:55;;;;;;;7.45;1.02;;;;;;;20.58;51.17;100411.19;16121471;19;129387;-39
2022/10/23 13:49:18;;;;;;;2.55;0.70;;;;;;;20.58;51.68;100411.19;16118674;19;129901;-39
2022/10/23 13:54:40;;;;;;;4.38;1.15;;;;;;;20.56;51.25;100402.28;16121997;19;129933;-39
2022/10/23 14:00:02;;;;;;;5.63;0.85;;;;;;;20.56;51.28;100405.06;16125376;19;133828;-38
2022/10/23 14:05:24;;;;;;;1.67;0.70;;;;;;;20.54;51.31;100401.75;16118181;19;129391;-40
2022/10/23 14:10:46;;;;;;;2.65;0.90;;;;;;;20.53;51.18;100404.78;16121430;19;130047;-40
2022/10/23 14:16:10;;;;;;;1.48;0.50;;;;;;;20.48;51.75;100402.81;16117853;19;130035;-39
2022/10/23 14:21:32;;;;;;;2.42;0.77;;;;;;;20.51;51.73;100401.44;16120741;19;130170;-37
2022/10/23 14:26:56;;;;;;;3.15;0.98;;;;;;;20.56;51.43;100393.97;16135648;19;129676;-39
2022/10/23 14:32:18;;;;;;;2.78;0.70;;;;;;;20.66;51.33;100395.13;16132697;19;129391;-38
2022/10/23 14:37:39;;;;;;;3.03;0.73;;;;;;;20.77;51.26;100385.72;16131524;19;129595;-43
2022/10/23 14:43:01;;;;;;;1.45;0.60;;;;;;;20.90;51.59;100368.53;16132607;19;133498;-42
2022/10/23 14:48:23;;;;;;;2.13;0.50;;;;;;;21.02;51.37;100367.44;16125747;19;129428;-39
2022/10/23 14:53:45;;;;;;;2.08;0.70;;;;;;;21.09;50.91;100365.19;16128601;19;129529;-41
2022/10/23 14:59:09;;;;;;;2.67;0.95;;;;;;;21.11;50.98;100349.06;16128600;19;129374;-39
2022/10/23 15:04:30;;;;;;;2.53;0.70;;;;;;;21.11;50.96;100329.59;16128229;19;130239;-40
2022/10/23 15:09:52;;;;;;;1.55;0.52;;;;;;;21.12;50.68;100338.75;16129723;19;129559;-40
2022/10/23 15:15:14;;;;;;;2.95;0.63;;;;;;;21.10;50.96;100327.09;16132931;19;130567;-41
2022/10/23 15:20:35;;;;;;;1.27;0.80;;;;;;;21.07;51.04;100317.34;16132088;19;129676;-40
2022/10/23 15:25:59;;;;;;;2.83;0.65;;;;;;;21.03;50.93;100311.50;16131412;19;130581;-40
2022/10/23 15:31:42;;;;;;;1.20;0.50;;;;;;;21.00;51.16;100297.34;16131272;19;129850;-41
2022/10/23 15:37:04;;;;;;;1.25;0.43;;;;;;;20.93;50.69;100271.75;16125870;19;130685;-40
2022/10/23 15:42:26;;;;;;;2.00;0.60;;;;;;;20.84;51.22;100263.97;16123403;19;129619;-39
2022/10/23 15:47:49;;;;;;;3.05;0.80;;;;;;;20.78;50.99;100281.78;16127771;19;129834;-39
2022/10/23 15:53:11;;;;;;;2.72;0.77;;;;;;;20.73;51.21;100290.06;16126127;19;129511;-44
2022/10/23 15:58:33;;;;;;;2.63;0.75;;;;;;;20.69;50.69;100283.38;16126890;19;130309;-40
2022/10/23 16:03:54;;;;;;;2.03;0.90;;;;;;;20.65;51.01;100268.38;16127406;19;130327;-39
2022/10/23 16:09:16;;;;;;;3.28;1.08;;;;;;;20.62;50.88;100266.16;16121778;19;130578;-41
2022/10/23 16:14:38;;;;;;;4.70;1.20;;;;;;;20.57;51.02;100259.47;16127155;19;129722;-39
2022/10/23 16:19:59;;;;;;;1.80;1.00;;;;;;;20.53;50.67;100215.84;16130769;19;129764;-41
2022/10/23 16:25:21;;;;;;;2.40;1.05;;;;;;;20.51;50.68;100255.03;16124410;19;132690;-39
2022/10/23 16:30:44;;;;;;;2.58;1.15;;;;;;;20.51;50.88;100249.47;16126014;19;129448;-40
2022/10/23 16:36:08;;;;;;;3.05;1.30;;;;;;;20.50;50.82;100241.38;16125327;19;130133;-40
2022/10/23 16:41:30;;;;;;;2.55;1.15;;;;;;;20.48;50.62;100218.63;16122808;19;130520;-39
2022/10/23 16:46:51;;;;;;;6.05;1.25;;;;;;;20.47;50.78;100217.78;16122971;19;129872;-40
2022/10/23 16:52:13;;;;;;;3.95;1.30;;;;;;;20.47;50.42;100212.22;16121601;19;129572;-39
2022/10/23 16:57:35;;;;;;;4.38;1.30;;;;;;;20.46;50.32;100213.31;16125101;19;130889;-39
2022/10/23 17:02:57;;;;;;;3.72;1.33;;;;;;;20.45;50.33;100226.41;16123776;19;130898;-43
2022/10/23 17:08:18;;;;;;;5.60;1.67;;;;;;;20.45;50.66;100231.09;16119248;19;129492;-40
2022/10/23 17:13:44;;;;;;;2.65;1.20;;;;;;;20.44;50.58;100229.44;16118161;19;130044;-40
2022/10/23 17:19:07;;;;;;;5.78;1.45;;;;;;;20.44;50.70;100215.53;16114314;19;129730;-40
2022/10/23 17:24:47;;;;;;;3.33;1.55;;;;;;;20.43;50.51;100233.34;16117075;19;129752;-39
2022/10/23 17:30:14;;;;;;;3.35;1.65;;;;;;;20.43;50.51;100241.69;16117662;19;130443;-39
2022/10/23 17:35:36;;;;;;;8.20;2.10;;;;;;;20.41;50.49;100222.50;16119578;19;130827;-39
2022/10/23 17:40:58;;;;;;;5.88;1.85;;;;;;;20.41;50.88;100210.56;16112673;19;129466;-39
2022/10/23 17:46:20;;;;;;;6.10;2.05;;;;;;;20.41;50.70;100235.56;16114128;19;130234;-39
2022/10/23 17:51:41;;;;;;;3.08;1.98;;;;;;;20.41;50.83;100255.81;16114835;19;134988;-40
2022/10/23 17:57:03;;;;;;;7.88;2.20;;;;;;;20.41;51.04;100252.22;16110983;19;129623;-39
2022/10/23 18:02:25;;;;;;;11.90;2.25;;;;;;;20.40;50.86;100236.66;16114367;19;129843;-40
2022/10/23 18:07:48;;;;;;;5.90;2.45;;;;;;;20.39;50.80;100241.38;16113780;19;129536;-39
2022/10/23 18:13:12;;;;;;;7.30;2.40;;;;;;;20.39;50.82;100224.72;15964919;19;2960905;-39
2022/10/23 18:18:33;;;;;;;4.75;2.30;;;;;;;20.38;51.10;100228.59;16119720;19;129442;-39
2022/10/23 18:23:59;;;;;;;8.90;2.45;;;;;;;20.38;51.40;100250.81;16120452;19;130640;-40
2022/10/23 18:29:21;;;;;;;8.27;2.33;;;;;;;20.38;51.19;100278.59;16116473;19;129372;-40
2022/10/23 18:34:43;;;;;;;6.00;2.40;;;;;;;20.38;51.33;100464.72;16115139;19;129936;-41
2022/10/23 18:40:05;;;;;;;7.50;2.10;;;;;;;20.35;51.85;100428.31;16116369;19;130558;-39
2022/10/23 18:45:27;;;;;;;6.22;2.58;;;;;;;20.37;51.83;100356.66;16112045;19;129099;-39
2022/10/23 18:50:48;;;;;;;6.78;2.38;;;;;;;20.50;51.68;100363.66;16111143;19;130693;-41
2022/10/23 18:56:10;;;;;;;15.40;3.47;;;;;;;20.76;51.80;100339.59;16113934;19;129386;-42
2022/10/23 19:01:33;;;;;;;24.52;3.00;;;;;;;21.08;51.13;100351.56;16115329;19;129950;-39
2022/10/23 19:06:55;;;;;;;19.52;2.83;;;;;;;21.32;50.79;100336.00;16110682;19;134250;-41
2022/10/23 19:12:17;;;;;;;21.50;2.58;;;;;;;21.47;50.92;100321.22;16130091;19;135649;-41
2022/10/23 19:17:38;;;;;;;15.18;2.05;;;;;;;21.55;50.82;100327.34;16131076;19;129542;-40
2022/10/23 19:23:01;;;;;;;19.65;3.22;;;;;;;21.55;50.30;100332.94;16132417;19;129543;-39
2022/10/23 19:28:23;;;;;;;50.42;3.95;;;;;;;21.54;50.74;100356.34;16127364;19;130034;-40
2022/10/23 19:33:44;;;;;;;37.95;3.53;;;;;;;21.51;51.13;100349.34;16128168;19;129188;-40
2022/10/23 19:39:06;;;;;;;53.53;5.22;;;;;;;21.50;50.85;100342.13;16128161;19;131142;-40
2022/10/23 19:44:28;;;;;;;37.50;4.07;;;;;;;21.48;51.29;100336.81;16129013;19;129427;-40
2022/10/23 19:49:50;;;;;;;36.75;3.72;;;;;;;21.44;51.58;100344.03;16130690;19;129512;-40
2022/10/23 19:55:12;;;;;;;28.27;2.90;;;;;;;21.41;51.59;100339.06;16128441;19;129565;-40
2022/10/23 20:00:34;;;;;;;21.13;2.60;;;;;;;21.38;51.35;100345.19;16131436;19;129606;-40
2022/10/23 20:05:56;;;;;;;17.48;2.85;;;;;;;21.33;51.81;100353.50;16129112;19;129884;-40
2022/10/23 20:11:27;;;;;;;30.15;2.65;;;;;;;21.32;51.62;100357.41;16123230;19;130777;-42
2022/10/23 20:16:49;;;;;;;18.75;2.63;;;;;;;21.22;51.82;100356.31;16128903;19;129394;-39
2022/10/23 20:22:16;;;;;;;14.02;2.03;;;;;;;21.18;51.73;100357.97;16123631;19;129367;-39
2022/10/23 20:27:38;;;;;;;17.23;1.98;;;;;;;21.14;51.71;100359.66;16126525;19;129812;-39
2022/10/23 20:32:59;;;;;;;14.70;1.88;;;;;;;21.11;51.62;100357.41;16127780;19;129757;-40
2022/10/23 20:38:21;;;;;;;8.85;1.80;;;;;;;21.08;52.16;100355.19;16126007;19;128993;-41
2022/10/23 20:43:43;;;;;;;15.25;1.58;;;;;;;21.03;52.20;100350.44;16125761;19;129663;-43
2022/10/23 20:49:05;;;;;;;55.78;3.80;;;;;;;21.02;52.18;100357.13;16126290;19;129774;-40
2022/10/23 20:54:30;;;;;;;21.02;2.20;;;;;;;21.03;52.50;100355.19;16123879;19;133514;-40
2022/10/23 20:59:52;;;;;;;;;;;;;;;21.00;52.19;100352.97;16124853;19;129691;-40
2022/10/23 21:05:13;;;;;;;20.73;2.45;;;;;;;20.99;52.37;100349.31;16123016;19;129591;-39
2022/10/23 21:10:35;;;;;;;23.00;2.10;;;;;;;20.97;52.25;100342.38;16123523;19;130590;-40
2022/10/23 21:15:57;;;;;;;17.88;2.15;;;;;;;20.97;52.37;100347.94;16126203;19;130937;-41
2022/10/23 21:21:20;;;;;;;10.68;1.75;;;;;;;20.95;52.17;100353.78;16123307;19;129485;-40
2022/10/23 21:26:42;;;;;;;20.65;1.70;;;;;;;20.94;52.13;100348.50;16121539;19;135598;-38
2022/10/23 21:32:03;;;;;;;14.70;1.63;;;;;;;20.92;52.24;100346.00;16115535;19;132109;-38
2022/10/23 21:37:25;;;;;;;17.23;2.15;;;;;;;20.88;52.03;100347.66;16118766;19;131095;-39
2022/10/23 21:42:47;;;;;;;10.50;1.63;;;;;;;20.84;52.21;100347.38;16117947;19;130065;-39
2022/10/23 21:48:09;;;;;;;20.92;1.75;;;;;;;20.83;52.50;100350.44;16119857;19;129765;-39
2022/10/23 21:53:30;;;;;;;9.90;1.30;;;;;;;20.79;52.21;100344.59;16118167;19;129222;-38
2022/10/23 21:58:52;;;;;;;8.90;1.40;;;;;;;20.75;52.34;100335.94;16122040;19;130038;-39
2022/10/23 22:04:18;;;;;;;5.68;1.35;;;;;;;20.74;52.38;100330.66;16118472;19;129169;-44
2022/10/23 22:09:40;;;;;;;12.02;1.30;;;;;;;20.72;52.32;100333.72;16121175;19;130714;-41
2022/10/23 22:15:02;;;;;;;7.78;1.60;;;;;;;20.70;51.80;100329.53;16119217;19;129817;-43
2022/10/23 22:20:23;;;;;;;5.20;1.38;;;;;;;20.68;52.34;100326.16;16118577;19;129048;-39
2022/10/23 22:25:45;;;;;;;4.90;1.50;;;;;;;20.66;51.84;100311.75;16118987;19;129378;-39
2022/10/23 22:31:14;;;;;;;7.50;1.60;;;;;;;20.64;52.01;100308.41;16117019;19;130789;-40
2022/10/23 22:36:36;;;;;;;5.88;0.85;;;;;;;20.62;52.11;100313.38;16119454;19;129252;-43
2022/10/23 22:41:58;;;;;;;6.28;0.95;;;;;;;20.60;52.27;100313.69;16121418;19;129489;-43
2022/10/23 22:47:20;;;;;;;5.60;0.80;;;;;;;20.58;52.16;100297.25;16130070;19;130465;-41
2022/10/23 22:52:42;;;;;;;3.60;0.82;;;;;;;20.56;52.15;100299.47;16132627;19;129932;-46
2022/10/23 22:58:04;;;;;;;4.40;1.10;;;;;;;20.55;51.64;100289.50;16131192;19;129587;-39
2022/10/23 23:03:25;;;;;;;6.30;1.10;;;;;;;20.54;51.92;100301.72;16130658;19;130750;-43
2022/10/23 23:08:48;;;;;;;1.90;0.60;;;;;;;20.54;51.75;100295.31;16130733;19;129920;-40
2022/10/23 23:14:10;;;;;;;1.75;0.60;;;;;;;20.52;51.96;100298.38;16129238;19;129936;-41
2022/10/23 23:19:32;;;;;;;6.10;0.82;;;;;;;20.51;51.63;100284.72;16130690;19;129565;-45
2022/10/23 23:24:54;;;;;;;4.45;0.73;;;;;;;20.50;51.77;100271.94;16131698;19;129323;-40
2022/10/23 23:30:16;;;;;;;3.30;0.60;;;;;;;20.49;51.74;100276.69;16131054;19;130280;-42
2022/10/23 23:35:42;;;;;;;3.72;0.70;;;;;;;20.50;51.72;100270.03;16131600;19;129664;-43
2022/10/23 23:41:05;;;;;;;2.28;0.65;;;;;;;20.46;51.96;100274.44;16128421;19;130583;-39
2022/10/23 23:46:26;;;;;;;1.65;0.80;;;;;;;20.47;51.72;100270.56;16127468;19;129083;-40
2022/10/23 23:51:49;;;;;;;4.75;0.63;;;;;;;20.45;51.46;100262.50;16130055;19;129940;-41
2022/10/23 23:57:11;;;;;;;3.15;0.65;;;;;;;20.43;51.74;100270.28;16129481;19;129525;-41
